Time;durP1;ratioP1;P1;durP2;ratioP2;P2;SDS_P1;SDS_P2;PMS_P1;PMS_P2;Temp;Humidity;BMP_temperature;BMP_pressure;BME280_temperature;BME280_humidity;BME280_pressure;Samples;Min_cycle;Max_cycle;Signal;HPM_P1;HPM_P2
2023/08/05 00:04:08;;;;;;;;;;;14.60;99.90;;;;;;20850507;28;19927;-77
2023/08/05 00:14:09;;;;;;;;;;;14.60;99.90;;;;;;20866468;28;20283;-77
2023/08/05 00:24:10;;;;;;;;;;;14.50;99.90;;;;;;20850565;28;20011;-77
2023/08/05 00:34:10;;;;;;;;;;;14.40;99.90;;;;;;20849111;28;19949;-76
2023/08/05 00:44:11;;;;;;;;;;;14.40;99.90;;;;;;20862285;28;19917;-77
2023/08/05 00:54:11;;;;;;;;;;;14.40;99.90;;;;;;20836950;28;20390;-77
2023/08/05 01:04:12;;;;;;;;;;;14.40;99.90;;;;;;20835982;28;19916;-77
2023/08/05 01:14:13;;;;;;;;;;;14.40;99.90;;;;;;20834974;28;20319;-77
2023/08/05 01:24:20;;;;;;;;;;;14.40;99.90;;;;;;20833433;28;19924;-76
2023/08/05 01:34:21;;;;;;;;;;;14.30;99.90;;;;;;20833743;28;20453;-76
2023/08/05 01:44:22;;;;;;;;;;;14.40;99.90;;;;;;20848069;28;19917;-76
2023/08/05 01:54:22;;;;;;;;;;;14.40;99.90;;;;;;20831023;28;20355;-77
2023/08/05 02:04:23;;;;;;;;;;;14.50;99.90;;;;;;20830047;28;19953;-77
2023/08/05 02:14:24;;;;;;;;;;;14.40;99.90;;;;;;20829130;28;19925;-77
2023/08/05 02:24:24;;;;;;;;;;;14.30;99.90;;;;;;20828580;28;20383;-76
2023/08/05 02:34:25;;;;;;;;;;;14.30;99.90;;;;;;20827674;28;19913;-77
2023/08/05 02:44:26;;;;;;;;;;;14.20;99.90;;;;;;20828782;28;20012;-77
2023/08/05 02:54:27;;;;;;;;;;;14.20;99.90;;;;;;20827841;28;19953;-77
2023/08/05 03:04:27;;;;;;;;;;;14.20;99.90;;;;;;20825609;28;19979;-77
2023/08/05 03:14:28;;;;;;;;;;;14.20;99.90;;;;;;20841024;28;20008;-77
2023/08/05 03:24:29;;;;;;;;;;;14.10;99.90;;;;;;20841144;28;20008;-77
2023/08/05 03:34:30;;;;;;;;;;;14.10;99.90;;;;;;20824080;28;19913;-77
2023/08/05 03:44:33;;;;;;;;;;;14.10;99.90;;;;;;20821056;28;19917;-77
2023/08/05 03:54:34;;;;;;;;;;;14.10;99.90;;;;;;20807051;28;19948;-77
2023/08/05 04:04:35;;;;;;;;;;;14.10;99.90;;;;;;20824225;28;19917;-77
2023/08/05 04:14:37;;;;;;;;;;;14.10;99.90;;;;;;20823613;28;20418;-77
2023/08/05 04:24:41;;;;;;;;;;;14.00;99.90;;;;;;20830859;28;19917;-77
2023/08/05 04:34:44;;;;;;;;;;;14.10;99.90;;;;;;20836450;28;20011;-77
2023/08/05 04:44:45;;;;;;;;;;;14.00;99.90;;;;;;20837239;28;19916;-77
2023/08/05 04:54:46;;;;;;;;;;;14.00;99.90;;;;;;20835561;28;19920;-77
2023/08/05 05:04:46;;;;;;;;;;;14.00;99.90;;;;;;20835969;28;20031;-77
2023/08/05 05:14:47;;;;;;;;;;;14.00;99.90;;;;;;20870926;22;19929;-74
2023/08/05 05:24:51;;;;;;;;;;;14.00;99.90;;;;;;20813821;28;19921;-74
2023/08/05 05:34:51;;;;;;;;;;;14.00;99.90;;;;;;20753052;28;19914;-74
2023/08/05 05:44:54;;;;;;;;;;;14.10;99.90;;;;;;20803885;28;19924;-74
2023/08/05 05:54:55;;;;;;;;;;;14.10;99.90;;;;;;20834106;28;20399;-74
2023/08/05 06:04:55;;;;;;;;;;;14.20;99.90;;;;;;20831891;28;20000;-74
2023/08/05 06:14:56;;;;;;;;;;;14.20;99.90;;;;;;20832018;28;19952;-74
2023/08/05 06:24:57;;;;;;;;;;;14.30;99.90;;;;;;20832120;28;20431;-74
2023/08/05 06:34:57;;;;;;;;;;;14.50;99.90;;;;;;20831305;28;19917;-74
2023/08/05 06:44:58;;;;;;;;;;;14.60;99.90;;;;;;20824075;28;19952;-74
2023/08/05 06:55:01;;;;;;;;;;;14.80;99.90;;;;;;20803864;28;19924;-74
2023/08/05 07:05:03;;;;;;;;;;;15.10;99.90;;;;;;20775191;28;19943;-74
2023/08/05 07:15:05;;;;;;;;;;;15.30;99.90;;;;;;20827463;28;20401;-73
2023/08/05 07:25:06;;;;;;;;;;;15.70;99.90;;;;;;20791479;28;19956;-73
2023/08/05 07:35:07;;;;;;;;;;;15.80;99.90;;;;;;20828949;28;19920;-73
2023/08/05 07:45:11;;;;;;;;;;;15.90;99.90;;;;;;20827403;28;19917;-73
2023/08/05 07:55:12;;;;;;;;;;;16.30;99.90;;;;;;20835147;28;19920;-72
2023/08/05 08:05:14;;;;;;;;;;;17.50;99.90;;;;;;20849520;28;19987;-73
2023/08/05 08:15:15;;;;;;;;;;;17.50;99.90;;;;;;20839176;28;19924;-73
2023/08/05 08:25:15;;;;;;;;;;;17.70;99.90;;;;;;20841369;28;19917;-73
2023/08/05 08:35:16;;;;;;;;;;;17.20;99.90;;;;;;20838253;28;20295;-73
2023/08/05 08:45:17;;;;;;;;;;;17.50;99.90;;;;;;20838534;28;19917;-73
2023/08/05 08:55:18;;;;;;;;;;;17.60;99.90;;;;;;20841684;28;20406;-73
2023/08/05 09:05:19;;;;;;;;;;;18.20;99.90;;;;;;20841587;28;19921;-73
2023/08/05 09:15:20;;;;;;;;;;;18.60;99.90;;;;;;20840707;28;19971;-72
2023/08/05 09:25:22;;;;;;;;;;;19.60;99.90;;;;;;20837279;28;20380;-72
2023/08/05 09:35:24;;;;;;;;;;;20.40;99.90;;;;;;20838363;28;19936;-73
2023/08/05 09:45:25;;;;;;;;;;;20.00;99.90;;;;;;20840152;28;20493;-72
2023/08/05 09:55:29;;;;;;;;;;;20.70;99.90;;;;;;20842298;28;19963;-73
2023/08/05 10:05:30;;;;;;;;;;;19.30;99.90;;;;;;20837624;28;20028;-72
2023/08/05 10:15:31;;;;;;;;;;;19.10;99.90;;;;;;20838453;28;19972;-72
2023/08/05 10:25:48;;;;;;;;;;;19.10;99.90;;;;;;20838197;28;19928;-72
2023/08/05 10:35:49;;;;;;;;;;;19.10;99.90;;;;;;20841319;28;19924;-72
2023/08/05 10:45:50;;;;;;;;;;;19.30;99.90;;;;;;20841186;28;20276;-72
2023/08/05 10:55:54;;;;;;;;;;;19.20;99.90;;;;;;20837820;28;19920;-73
2023/08/05 11:05:58;;;;;;;;;;;19.40;99.90;;;;;;20792385;28;19995;-72
2023/08/05 11:16:02;;;;;;;;;;;19.80;99.90;;;;;;20809549;28;19924;-72
2023/08/05 11:26:04;;;;;;;;;;;20.10;99.90;;;;;;20825904;28;20402;-72
2023/08/05 11:36:05;;;;;;;;;;;20.20;99.90;;;;;;20825458;28;19920;-73
2023/08/05 11:46:05;;;;;;;;;;;21.00;99.90;;;;;;20812863;28;20322;-73
2023/08/05 11:56:06;;;;;;;;;;;20.90;99.90;;;;;;20825395;28;19917;-73
2023/08/05 12:06:07;;;;;;;;;;;21.40;99.90;;;;;;20824622;28;19960;-72
2023/08/05 12:16:15;;;;;;;;;;;21.70;99.90;;;;;;20823924;28;20015;-73
2023/08/05 12:26:24;;;;;;;;;;;23.40;99.90;;;;;;20824151;28;19941;-73
2023/08/05 12:36:25;;;;;;;;;;;22.10;99.90;;;;;;20829100;28;19913;-72
2023/08/05 12:46:25;;;;;;;;;;;21.80;99.90;;;;;;20833756;28;19956;-72
2023/08/05 12:56:26;;;;;;;;;;;22.60;99.90;;;;;;20837421;28;19913;-72
2023/08/05 13:06:27;;;;;;;;;;;23.00;99.90;;;;;;20821055;28;19978;-72
2023/08/05 13:16:28;;;;;;;;;;;22.00;99.90;;;;;;20825008;28;19920;-73
2023/08/05 13:26:29;;;;;;;;;;;22.80;99.90;;;;;;20832376;28;19923;-73
2023/08/05 13:36:30;;;;;;;;;;;23.20;99.90;;;;;;20793248;28;19913;-74
2023/08/05 13:46:31;;;;;;;;;;;23.20;99.90;;;;;;20765948;28;19960;-73
2023/08/05 13:56:31;;;;;;;;;;;22.40;99.90;;;;;;20750615;28;19921;-73
2023/08/05 14:06:32;;;;;;;;;;;23.20;99.90;;;;;;20750039;28;19924;-73
2023/08/05 14:16:35;;;;;;;;;;;23.00;99.90;;;;;;20816578;28;19963;-72
2023/08/05 14:26:36;;;;;;;;;;;23.00;99.90;;;;;;20830386;28;19967;-73
2023/08/05 14:36:36;;;;;;;;;;;22.90;99.90;;;;;;20829991;28;19913;-73
2023/08/05 14:46:37;;;;;;;;;;;22.90;99.90;;;;;;20829078;28;19917;-73
2023/08/05 14:56:38;;;;;;;;;;;22.40;99.90;;;;;;20829116;28;19917;-73
2023/08/05 15:06:39;;;;;;;;;;;22.50;99.90;;;;;;20832092;28;20326;-73
2023/08/05 15:16:39;;;;;;;;;;;22.90;99.90;;;;;;20827938;28;19917;-73
2023/08/05 15:26:40;;;;;;;;;;;23.00;99.90;;;;;;20826731;28;20383;-72
2023/08/05 15:36:41;;;;;;;;;;;22.70;99.90;;;;;;20826571;28;20000;-73
2023/08/05 15:46:41;;;;;;;;;;;23.10;99.90;;;;;;20826676;28;19940;-73
2023/08/05 15:56:42;;;;;;;;;;;23.50;99.90;;;;;;20830650;28;19960;-73
2023/08/05 16:06:43;;;;;;;;;;;22.80;99.90;;;;;;20825632;28;19924;-72
2023/08/05 16:16:43;;;;;;;;;;;22.30;99.90;;;;;;20828981;28;19953;-73
2023/08/05 16:26:44;;;;;;;;;;;22.30;99.90;;;;;;20840546;28;19923;-72
2023/08/05 16:36:45;;;;;;;;;;;22.30;99.90;;;;;;20843222;28;19913;-73
2023/08/05 16:46:48;;;;;;;;;;;22.00;99.90;;;;;;20837855;28;20364;-73
2023/08/05 16:56:49;;;;;;;;;;;22.00;99.90;;;;;;20837428;28;19917;-73
2023/08/05 17:06:50;;;;;;;;;;;21.90;99.90;;;;;;20836294;28;19917;-73
2023/08/05 17:16:50;;;;;;;;;;;21.60;99.90;;;;;;20836026;28;20011;-72
2023/08/05 17:26:51;;;;;;;;;;;21.10;99.90;;;;;;20834323;28;20008;-72
2023/08/05 17:36:52;;;;;;;;;;;20.90;99.90;;;;;;20834237;28;20012;-72
2023/08/05 17:46:52;;;;;;;;;;;20.70;99.90;;;;;;20838829;28;20016;-72
2023/08/05 17:56:53;;;;;;;;;;;20.30;99.90;;;;;;20832956;28;20382;-72
2023/08/05 18:06:53;;;;;;;;;;;20.20;99.90;;;;;;20832333;28;19924;-72
2023/08/05 18:16:54;;;;;;;;;;;20.10;99.90;;;;;;20832966;28;19921;-72
2023/08/05 18:26:55;;;;;;;;;;;19.70;99.90;;;;;;20831036;28;20282;-72
2023/08/05 18:36:55;;;;;;;;;;;19.30;99.90;;;;;;20836040;28;19920;-72
2023/08/05 18:46:56;;;;;;;;;;;19.10;99.90;;;;;;20831268;28;19994;-72
2023/08/05 18:56:57;;;;;;;;;;;18.70;99.90;;;;;;20828799;28;19975;-73
2023/08/05 19:06:57;;;;;;;;;;;17.80;99.90;;;;;;20828402;28;20343;-73
2023/08/05 19:16:58;;;;;;;;;;;17.00;99.90;;;;;;20836079;28;19921;-74
2023/08/05 19:26:59;;;;;;;;;;;16.90;99.90;;;;;;20834978;28;19923;-72
2023/08/05 19:37:00;;;;;;;;;;;17.00;99.90;;;;;;20801207;28;19920;-72
2023/08/05 19:47:00;;;;;;;;;;;17.00;99.90;;;;;;20812584;28;19927;-72
2023/08/05 19:57:01;;;;;;;;;;;16.80;99.90;;;;;;20776524;28;20296;-73
2023/08/05 20:07:02;;;;;;;;;;;16.80;99.90;;;;;;20760238;28;19967;-73
2023/08/05 20:17:03;;;;;;;;;;;16.60;99.90;;;;;;20819024;28;20322;-73
2023/08/05 20:27:03;;;;;;;;;;;16.60;99.90;;;;;;20844654;28;19971;-73
2023/08/05 20:37:04;;;;;;;;;;;16.50;99.90;;;;;;20840612;28;19913;-73
2023/08/05 20:47:05;;;;;;;;;;;16.30;99.90;;;;;;20830092;28;19921;-73
2023/08/05 20:57:06;;;;;;;;;;;16.10;99.90;;;;;;20797427;28;19914;-73
2023/08/05 21:07:06;;;;;;;;;;;16.00;99.90;;;;;;20802479;28;20379;-74
2023/08/05 21:17:07;;;;;;;;;;;16.10;99.90;;;;;;20828385;28;20402;-73
2023/08/05 21:27:08;;;;;;;;;;;15.90;99.90;;;;;;20821100;28;19925;-72
2023/08/05 21:37:08;;;;;;;;;;;15.80;99.90;;;;;;20769257;28;20302;-73
2023/08/05 21:47:09;;;;;;;;;;;15.80;99.90;;;;;;20833488;28;20307;-72
2023/08/05 21:57:10;;;;;;;;;;;15.70;99.90;;;;;;20833570;28;19920;-73
2023/08/05 22:07:10;;;;;;;;;;;15.60;99.90;;;;;;20832027;28;20295;-73
2023/08/05 22:17:11;;;;;;;;;;;15.60;99.90;;;;;;20838484;28;19963;-73
2023/08/05 22:27:12;;;;;;;;;;;15.60;99.90;;;;;;20830064;28;20288;-73
2023/08/05 22:37:12;;;;;;;;;;;15.60;99.90;;;;;;20829369;28;19913;-73
2023/08/05 22:47:13;;;;;;;;;;;15.70;99.90;;;;;;20828529;28;19921;-73
2023/08/05 22:57:13;;;;;;;;;;;15.70;99.90;;;;;;20828548;28;20036;-73
2023/08/05 23:07:14;;;;;;;;;;;15.60;99.90;;;;;;20837154;28;20338;-73
2023/08/05 23:17:15;;;;;;;;;;;15.60;99.90;;;;;;20828096;28;19940;-74
2023/08/05 23:27:15;;;;;;;;;;;15.50;99.90;;;;;;20825123;28;19917;-74
2023/08/05 23:37:16;;;;;;;;;;;15.20;99.90;;;;;;20825829;28;19913;-73
2023/08/05 23:47:17;;;;;;;;;;;15.00;99.90;;;;;;20824947;28;19917;-74
2023/08/05 23:57:17;;;;;;;;;;;15.00;99.90;;;;;;20824364;28;19913;-74
